MZBZ

Details ICAO MZBZ (BZE)
Name Philip S W Goldson Intl
Region Belize
Timezone America/Belize (UTC-6.0)
Plans Departing 82
Arriving 120
Stats Elevation 15 ft / 5 m (AMSL)
Location 17.539144° -88.308201°
Runways 1
Magnetic Variation 0.629° W
Sunrise 2018-06-25 11:21:49 UTC / 2018-06-25 05:21:49 Local
Sunset 2018-06-26 00:32:22 UTC / 2018-06-25 18:32:22 Local
Advertisement - Login to hide

Runways

ID Width Length Bearing (true) Bearing (mag) Surface Threshold Offset Overrun Length
07 150 ft / 46 m 7,097 ft / 2,163 m 76.65° 77.28° Asphalt 0 ft / 0 m 200 ft / 61 m
25 150 ft / 46 m 7,097 ft / 2,163 m 256.66° 257.29° Asphalt 0 ft / 0 m 200 ft / 61 m

Map

Weather


0- 5 10 15 20 25 30 35+ Temperature / ° C

Clouds and Precipitation
Forecast for 2018-06-25 12:00 UTC. Updated 2 hours ago

Ground ~20,000 ft ~40,000 ft Winds

METAR

MZBZ 251100Z 11005KT 9999 SCT016 28/25 A2992 Q1013 NOSIG

TAF

Not found

Frequencies

Ground 121.90 MHz GND
Approach 121.00 MHz BELIZE APP
Tower 118.00 MHz BELIZE TWR
Warning: Do not use this data for real-world aviation or navigation. No guarantee of current accuracy is given.